< < Back
Terminal Aerodrome Forecast


Current Version              Previous Versions:   1  2  3  4  5  6  7  8  9  

Terminal Aerodrome Forecast

286
FTUS42 KCAE 300800 AAA
TAFAGS
TAF AMD
KAGS 300833Z 3009/3106 VRB05KT P6SM SCT080=

Latest METAR

218
SAUS70 KWBC 301300 RRD
MTRAGS
METAR KAGS 301253Z 03006KT 10SM CLR 23/16 A3001 RMK AO2 SLP160
T02280156


USA.gov is the U.S. government's official web portal to all federal, state and local government web resources and services.